Time;durP1;ratioP1;P1;durP2;ratioP2;P2;SDS_P1;SDS_P2;PMS_P1;PMS_P2;Temp;Humidity;BMP_temperature;BMP_pressure;BME280_temperature;BME280_humidity;BME280_pressure;Samples;Min_cycle;Max_cycle;Signal;HPM_P1;HPM_P2
2023/08/21 00:04:14;;;;;;;11.23;6.40;;;;;;;;;;2614808;54;20359;-73
2023/08/21 00:09:43;;;;;;;5.70;5.20;;;;;;;;;;2614449;54;20411;-72
2023/08/21 00:15:13;;;;;;;9.67;6.07;;;;;;;;;;2614541;54;20518;-75
2023/08/21 00:20:43;;;;;;;7.33;5.93;;;;;;;;;;2614422;54;21000;-75
2023/08/21 00:32:20;;;;;;;10.73;6.30;;;;;;;;;;2614960;46;20486;-74
2023/08/21 00:37:50;;;;;;;6.30;5.80;;;;;;;;;;2615881;39;20795;-75
2023/08/21 00:43:19;;;;;;;7.23;5.30;;;;;;;;;;2615800;54;20354;-75
2023/08/21 00:48:49;;;;;;;7.40;5.87;;;;;;;;;;2615300;54;20399;-74
2023/08/21 00:54:19;;;;;;;6.70;5.73;;;;;;;;;;2615497;54;20402;-77
2023/08/21 00:59:49;;;;;;;7.07;5.40;;;;;;;;;;2616310;54;20909;-74
2023/08/21 01:05:22;;;;;;;7.67;5.23;;;;;;;;;;2616388;54;20957;-74
2023/08/21 01:11:08;;;;;;;6.87;5.90;;;;;;;;;;2616288;54;20972;-75
2023/08/21 01:16:38;;;;;;;7.30;6.60;;;;;;;;;;2616099;54;20542;-74
2023/08/21 01:22:08;;;;;;;6.90;5.70;;;;;;;;;;2616498;39;20737;-75
2023/08/21 01:31:12;;;;;;;11.57;6.10;;;;;;;;;;2615054;54;20434;-73
2023/08/21 01:36:43;;;;;;;7.83;5.30;;;;;;;;;;2614824;54;20527;-74
2023/08/21 01:42:12;;;;;;;9.87;5.40;;;;;;;;;;2614544;54;20540;-73
2023/08/21 01:47:42;;;;;;;8.80;4.73;;;;;;;;;;2615022;54;20363;-74
2023/08/21 01:53:11;;;;;;;11.23;5.17;;;;;;;;;;2614808;54;20362;-74
2023/08/21 01:58:41;;;;;;;5.00;4.53;;;;;;;;;;2615060;54;20391;-73
2023/08/21 02:04:10;;;;;;;6.30;4.80;;;;;;;;;;2615165;39;20893;-74
2023/08/21 02:09:40;;;;;;;9.43;4.83;;;;;;;;;;2615879;54;20534;-75
2023/08/21 02:15:10;;;;;;;6.30;5.70;;;;;;;;;;2616007;54;20410;-75
2023/08/21 02:20:39;;;;;;;6.60;4.67;;;;;;;;;;2616496;39;20839;-75
2023/08/21 02:26:09;;;;;;;11.20;5.43;;;;;;;;;;2615966;54;20390;-75
2023/08/21 02:31:39;;;;;;;8.10;4.90;;;;;;;;;;2616486;39;20807;-75
2023/08/21 02:37:08;;;;;;;6.03;5.40;;;;;;;;;;2616065;54;20407;-76
2023/08/21 02:42:38;;;;;;;6.80;4.97;;;;;;;;;;2615989;54;20475;-75
2023/08/21 02:48:07;;;;;;;5.90;4.63;;;;;;;;;;2615875;46;20407;-75
2023/08/21 02:53:37;;;;;;;9.73;5.17;;;;;;;;;;2615484;54;20390;-75
2023/08/21 02:59:07;;;;;;;7.70;5.20;;;;;;;;;;2615912;54;20399;-75
2023/08/21 03:04:36;;;;;;;8.50;5.00;;;;;;;;;;2615876;54;20438;-75
2023/08/21 03:10:07;;;;;;;8.77;5.70;;;;;;;;;;2615680;54;20394;-75
2023/08/21 03:15:36;;;;;;;5.70;5.10;;;;;;;;;;2615160;54;20414;-74
2023/08/21 03:21:06;;;;;;;9.90;5.13;;;;;;;;;;2614340;54;20394;-75
2023/08/21 03:26:36;;;;;;;8.97;5.17;;;;;;;;;;2614343;54;20366;-74
2023/08/21 03:41:36;;;;;;;10.27;5.80;;;;;;;;;;2613323;54;20419;-74
2023/08/21 03:47:05;;;;;;;8.43;5.00;;;;;;;;;;2614621;54;20426;-75
2023/08/21 03:52:34;;;;;;;9.30;5.20;;;;;;;;;;2613937;54;21014;-73
2023/08/21 03:58:03;;;;;;;11.13;5.50;;;;;;;;;;2613922;54;20383;-74
2023/08/21 04:03:33;;;;;;;8.13;5.70;;;;;;;;;;2614529;54;20387;-74
2023/08/21 04:09:04;;;;;;;9.37;7.50;;;;;;;;;;2615323;54;20418;-74
2023/08/21 04:14:33;;;;;;;7.00;6.30;;;;;;;;;;2616149;39;21782;-74
2023/08/21 04:20:03;;;;;;;15.80;7.90;;;;;;;;;;2616086;54;20435;-75
2023/08/21 04:25:33;;;;;;;16.73;7.80;;;;;;;;;;2614701;54;20455;-73
2023/08/21 04:31:06;;;;;;;10.97;7.80;;;;;;;;;;2616022;39;20768;-74
2023/08/21 04:36:36;;;;;;;7.43;6.10;;;;;;;;;;2615989;39;20868;-74
2023/08/21 04:42:05;;;;;;;12.73;7.07;;;;;;;;;;2615720;46;20426;-75
2023/08/21 04:47:35;;;;;;;17.07;7.77;;;;;;;;;;2616169;39;20803;-74
2023/08/21 04:53:05;;;;;;;7.90;7.10;;;;;;;;;;2616288;54;20362;-74
2023/08/21 04:58:35;;;;;;;9.87;7.00;;;;;;;;;;2615776;54;20443;-73
2023/08/21 05:04:04;;;;;;;14.70;7.20;;;;;;;;;;2616038;54;20410;-75
2023/08/21 05:09:34;;;;;;;13.60;8.13;;;;;;;;;;2615791;54;21223;-73
2023/08/21 05:15:04;;;;;;;11.63;6.80;;;;;;;;;;2615681;54;20411;-73
2023/08/21 05:20:33;;;;;;;9.07;6.60;;;;;;;;;;2615586;54;20402;-74
2023/08/21 05:26:03;;;;;;;8.63;6.17;;;;;;;;;;2615759;54;20917;-74
2023/08/21 05:37:40;;;;;;;9.10;7.47;;;;;;;;;;2614991;46;20538;-73
2023/08/21 05:43:10;;;;;;;9.80;8.07;;;;;;;;;;2614845;54;20379;-74
2023/08/21 05:48:39;;;;;;;11.73;7.70;;;;;;;;;;2614817;54;20395;-74
2023/08/21 05:54:09;;;;;;;10.63;8.83;;;;;;;;;;2614920;54;20410;-72
2023/08/21 05:59:43;;;;;;;10.60;9.50;;;;;;;;;;2614866;54;20359;-73
2023/08/21 06:05:13;;;;;;;10.57;9.50;;;;;;;;;;2615771;39;20777;-73
2023/08/21 06:10:43;;;;;;;14.33;10.47;;;;;;;;;;2615180;39;21008;-73
2023/08/21 06:16:12;;;;;;;11.17;10.17;;;;;;;;;;2614759;39;20854;-73
2023/08/21 06:21:42;;;;;;;25.40;11.23;;;;;;;;;;2614658;54;20407;-73
2023/08/21 06:27:12;;;;;;;15.47;11.03;;;;;;;;;;2614555;54;20455;-73
2023/08/21 06:36:19;;;;;;;11.30;10.50;;;;;;;;;;2614593;54;20446;-73
2023/08/21 06:41:48;;;;;;;15.67;10.17;;;;;;;;;;2614239;39;20950;-74
2023/08/21 06:47:18;;;;;;;11.13;10.33;;;;;;;;;;2615681;39;20760;-73
2023/08/21 06:52:48;;;;;;;12.13;11.17;;;;;;;;;;2615081;46;20426;-74
2023/08/21 06:58:17;;;;;;;12.33;11.33;;;;;;;;;;2615151;54;20358;-74
2023/08/21 07:03:47;;;;;;;11.50;10.33;;;;;;;;;;2615051;54;21423;-73
2023/08/21 07:09:16;;;;;;;11.10;10.00;;;;;;;;;;2615139;54;20403;-73
2023/08/21 07:14:46;;;;;;;11.40;10.37;;;;;;;;;;2615408;54;20925;-74
2023/08/21 07:20:15;;;;;;;11.40;10.40;;;;;;;;;;2615059;54;20406;-73
2023/08/21 07:25:45;;;;;;;11.63;10.43;;;;;;;;;;2614961;54;20390;-73
2023/08/21 07:31:15;;;;;;;11.93;11.00;;;;;;;;;;2614991;54;20507;-74
2023/08/21 07:36:45;;;;;;;11.90;9.77;;;;;;;;;;2615908;54;20446;-74
2023/08/21 07:42:14;;;;;;;11.07;9.93;;;;;;;;;;2615706;54;20395;-73
2023/08/21 07:47:44;;;;;;;9.47;8.70;;;;;;;;;;2615770;47;20505;-74
2023/08/21 07:53:14;;;;;;;10.87;9.90;;;;;;;;;;2615428;54;20398;-73
2023/08/21 07:58:43;;;;;;;11.93;10.90;;;;;;;;;;2615138;54;20398;-74
2023/08/21 08:04:13;;;;;;;10.73;9.73;;;;;;;;;;2615021;54;20389;-73
2023/08/21 08:09:43;;;;;;;12.90;11.90;;;;;;;;;;2615041;54;21177;-73
2023/08/21 08:15:13;;;;;;;11.97;11.10;;;;;;;;;;2615221;54;21003;-73
2023/08/21 08:20:42;;;;;;;11.70;10.90;;;;;;;;;;2615279;54;20367;-73
2023/08/21 08:26:12;;;;;;;12.27;11.30;;;;;;;;;;2614784;54;20925;-73
2023/08/21 08:31:41;;;;;;;13.50;12.30;;;;;;;;;;2615263;39;20759;-73
2023/08/21 08:43:18;;;;;;;14.00;12.80;;;;;;;;;;2615163;46;20411;-74
2023/08/21 08:48:48;;;;;;;12.37;11.53;;;;;;;;;;2614726;54;20362;-73
2023/08/21 08:54:18;;;;;;;12.17;11.47;;;;;;;;;;2614932;54;20399;-74
2023/08/21 08:59:48;;;;;;;13.60;12.60;;;;;;;;;;2615427;54;20399;-74
2023/08/21 09:05:17;;;;;;;13.03;12.20;;;;;;;;;;2614793;54;20378;-74
2023/08/21 09:10:47;;;;;;;14.30;13.10;;;;;;;;;;2614835;54;20382;-74
2023/08/21 09:16:17;;;;;;;13.10;12.03;;;;;;;;;;2614759;54;20359;-74
2023/08/21 09:21:50;;;;;;;13.20;12.03;;;;;;;;;;2614669;54;21023;-73
2023/08/21 09:27:19;;;;;;;12.43;11.63;;;;;;;;;;2614653;54;20375;-72
2023/08/21 09:32:56;;;;;;;12.73;11.83;;;;;;;;;;2615425;54;20377;-73
2023/08/21 09:38:27;;;;;;;11.77;11.07;;;;;;;;;;2614703;54;20465;-74
2023/08/21 09:44:00;;;;;;;12.30;11.50;;;;;;;;;;2615140;54;20407;-74
2023/08/21 09:49:30;;;;;;;12.70;12.00;;;;;;;;;;2614806;54;20429;-73
2023/08/21 09:55:02;;;;;;;13.73;12.57;;;;;;;;;;2613733;54;20418;-73
2023/08/21 10:00:34;;;;;;;12.80;12.10;;;;;;;;;;2613953;54;20422;-73
2023/08/21 10:06:04;;;;;;;12.27;11.67;;;;;;;;;;2614892;54;20937;-73
2023/08/21 10:11:34;;;;;;;13.30;12.30;;;;;;;;;;2614896;54;20351;-74
2023/08/21 10:17:03;;;;;;;13.43;12.47;;;;;;;;;;2614814;54;20395;-74
2023/08/21 10:22:42;;;;;;;12.43;11.83;;;;;;;;;;2615505;54;20402;-74
2023/08/21 10:28:11;;;;;;;12.80;12.00;;;;;;;;;;2615248;54;20444;-74
2023/08/21 10:33:47;;;;;;;13.00;12.40;;;;;;;;;;2615231;54;20368;-73
2023/08/21 10:39:18;;;;;;;13.70;13.00;;;;;;;;;;2615564;54;20383;-74
2023/08/21 10:44:51;;;;;;;12.57;11.70;;;;;;;;;;2615421;54;20909;-74
2023/08/21 10:50:21;;;;;;;14.73;12.73;;;;;;;;;;2614795;54;20378;-74
2023/08/21 10:55:54;;;;;;;13.00;12.10;;;;;;;;;;2614968;54;20394;-74
2023/08/21 11:01:23;;;;;;;12.63;11.83;;;;;;;;;;2614919;54;20410;-73
2023/08/21 11:06:53;;;;;;;12.17;11.37;;;;;;;;;;2614597;54;20351;-74
2023/08/21 11:12:23;;;;;;;12.97;12.17;;;;;;;;;;2614902;54;20395;-74
2023/08/21 11:23:50;;;;;;;11.93;11.30;;;;;;;;;;2614854;54;20395;-74
2023/08/21 11:29:21;;;;;;;13.03;12.03;;;;;;;;;;2614888;54;20354;-74
2023/08/21 11:34:51;;;;;;;12.77;11.97;;;;;;;;;;2615140;54;20375;-75
2023/08/21 11:40:21;;;;;;;20.40;12.50;;;;;;;;;;2614919;54;20893;-74
2023/08/21 11:45:51;;;;;;;13.03;12.23;;;;;;;;;;2614850;54;20375;-74
2023/08/21 11:51:21;;;;;;;12.93;12.33;;;;;;;;;;2615153;54;20392;-74
2023/08/21 11:56:50;;;;;;;12.63;11.63;;;;;;;;;;2615199;39;20754;-74
2023/08/21 12:02:24;;;;;;;11.80;11.10;;;;;;;;;;2614657;54;20387;-74
2023/08/21 12:07:54;;;;;;;12.17;11.47;;;;;;;;;;2614755;54;20368;-74
2023/08/21 12:13:24;;;;;;;11.40;10.90;;;;;;;;;;2614815;54;20899;-73
2023/08/21 12:18:57;;;;;;;12.00;11.20;;;;;;;;;;2614318;54;20387;-74
2023/08/21 12:24:26;;;;;;;11.60;10.90;;;;;;;;;;2615970;54;20398;-73
2023/08/21 12:29:56;;;;;;;11.10;10.60;;;;;;;;;;2615445;39;20760;-74
2023/08/21 12:35:26;;;;;;;11.23;10.53;;;;;;;;;;2614750;54;20394;-73
2023/08/21 12:47:02;;;;;;;12.17;11.57;;;;;;;;;;2614750;54;20392;-73
2023/08/21 12:52:32;;;;;;;11.57;10.97;;;;;;;;;;2614740;54;20349;-73
2023/08/21 12:58:02;;;;;;;13.33;11.47;;;;;;;;;;2614820;54;20362;-73
2023/08/21 13:03:33;;;;;;;12.50;11.60;;;;;;;;;;2615100;54;20401;-73
2023/08/21 13:09:03;;;;;;;12.67;11.97;;;;;;;;;;2615048;54;20376;-74
2023/08/21 13:14:33;;;;;;;13.57;12.60;;;;;;;;;;2614292;54;20367;-74
2023/08/21 13:20:04;;;;;;;11.70;11.20;;;;;;;;;;2614541;54;20370;-73
2023/08/21 13:25:34;;;;;;;11.90;11.30;;;;;;;;;;2614912;54;20359;-73
2023/08/21 13:31:05;;;;;;;13.40;12.40;;;;;;;;;;2614759;46;20427;-75
2023/08/21 13:36:35;;;;;;;13.40;12.70;;;;;;;;;;2615115;54;20418;-75
2023/08/21 13:45:42;;;;;;;13.30;12.50;;;;;;;;;;2614893;54;20904;-74
2023/08/21 13:51:12;;;;;;;14.47;13.03;;;;;;;;;;2614489;54;20363;-73
2023/08/21 13:56:41;;;;;;;13.00;12.20;;;;;;;;;;2614520;54;20475;-73
2023/08/21 14:02:11;;;;;;;12.83;12.10;;;;;;;;;;2614740;54;20459;-74
2023/08/21 14:07:40;;;;;;;13.07;12.47;;;;;;;;;;2614586;54;20932;-73
2023/08/21 14:13:11;;;;;;;13.43;12.53;;;;;;;;;;2614512;54;20460;-74
2023/08/21 14:18:41;;;;;;;13.00;12.20;;;;;;;;;;2615121;39;20876;-73
2023/08/21 14:24:10;;;;;;;12.10;11.50;;;;;;;;;;2614141;54;20411;-72
2023/08/21 14:29:40;;;;;;;13.83;12.40;;;;;;;;;;2614421;54;20383;-73
2023/08/21 14:35:10;;;;;;;12.27;11.40;;;;;;;;;;2614731;54;20490;-73
2023/08/21 14:40:39;;;;;;;12.47;11.60;;;;;;;;;;2614709;54;20351;-73
2023/08/21 14:46:10;;;;;;;12.60;11.43;;;;;;;;;;2614322;54;20446;-74
2023/08/21 14:51:39;;;;;;;13.13;12.13;;;;;;;;;;2615059;54;20387;-73
2023/08/21 14:57:09;;;;;;;13.53;12.50;;;;;;;;;;2615100;39;20775;-73
2023/08/21 15:02:38;;;;;;;13.70;12.93;;;;;;;;;;2614999;54;20451;-70
2023/08/21 15:08:08;;;;;;;13.17;12.37;;;;;;;;;;2614867;54;20471;-70
2023/08/21 15:13:38;;;;;;;13.33;12.30;;;;;;;;;;2615437;54;20363;-72
2023/08/21 15:19:08;;;;;;;13.80;12.70;;;;;;;;;;2615162;54;20499;-71
2023/08/21 15:24:37;;;;;;;12.80;11.97;;;;;;;;;;2615275;39;20773;-70
2023/08/21 15:30:07;;;;;;;13.90;12.60;;;;;;;;;;2614892;39;20796;-70
2023/08/21 15:35:37;;;;;;;14.20;12.80;;;;;;;;;;2614963;39;20754;-69
2023/08/21 15:41:07;;;;;;;14.50;13.00;;;;;;;;;;2614732;54;20438;-70
2023/08/21 15:46:37;;;;;;;13.27;12.53;;;;;;;;;;2614905;39;21000;-71
2023/08/21 15:52:07;;;;;;;13.73;12.93;;;;;;;;;;2615129;54;20467;-70
2023/08/21 15:57:37;;;;;;;13.47;12.47;;;;;;;;;;2615541;54;20363;-70
2023/08/21 16:03:07;;;;;;;14.07;13.30;;;;;;;;;;2615807;54;20411;-71
2023/08/21 16:08:37;;;;;;;14.17;13.47;;;;;;;;;;2615627;54;20398;-71
2023/08/21 16:14:07;;;;;;;13.23;12.53;;;;;;;;;;2615310;54;20407;-75
2023/08/21 16:19:37;;;;;;;13.57;12.87;;;;;;;;;;2615341;54;20386;-71
2023/08/21 16:25:07;;;;;;;13.80;13.10;;;;;;;;;;2615776;54;20945;-72
2023/08/21 16:30:36;;;;;;;12.90;12.10;;;;;;;;;;2614645;54;20502;-70
2023/08/21 16:36:06;;;;;;;14.33;13.43;;;;;;;;;;2615112;54;20423;-70
2023/08/21 16:41:35;;;;;;;14.03;13.33;;;;;;;;;;2615748;39;20764;-70
2023/08/21 16:50:43;;;;;;;14.03;13.30;;;;;;;;;;2615402;54;20399;-70
2023/08/21 16:56:13;;;;;;;15.13;14.10;;;;;;;;;;2615921;46;20375;-70
2023/08/21 17:01:42;;;;;;;15.30;14.30;;;;;;;;;;2615824;54;20373;-70
2023/08/21 17:07:13;;;;;;;15.57;14.27;;;;;;;;;;2616701;31;20865;-70
2023/08/21 17:12:45;;;;;;;15.40;14.10;;;;;;;;;;2615778;54;20443;-71
2023/08/21 17:18:14;;;;;;;14.03;13.23;;;;;;;;;;2615689;54;20422;-69
2023/08/21 17:23:44;;;;;;;14.60;13.50;;;;;;;;;;2616196;54;20435;-70
2023/08/21 17:29:14;;;;;;;15.77;14.77;;;;;;;;;;2615831;54;20414;-70
2023/08/21 17:34:44;;;;;;;14.53;13.53;;;;;;;;;;2616180;54;20417;-70
2023/08/21 17:40:13;;;;;;;13.90;13.10;;;;;;;;;;2615511;54;20395;-74
2023/08/21 17:45:45;;;;;;;13.87;12.97;;;;;;;;;;2615809;54;20411;-74
2023/08/21 17:51:15;;;;;;;14.30;13.33;;;;;;;;;;2615432;54;20463;-75
2023/08/21 17:56:44;;;;;;;14.17;13.37;;;;;;;;;;2615524;54;20426;-75
2023/08/21 18:02:14;;;;;;;13.87;13.00;;;;;;;;;;2615212;54;20482;-75
2023/08/21 18:07:43;;;;;;;14.93;13.93;;;;;;;;;;2615388;54;20406;-74
2023/08/21 18:13:13;;;;;;;13.40;12.50;;;;;;;;;;2615591;54;20396;-76
2023/08/21 18:18:45;;;;;;;13.00;12.00;;;;;;;;;;2614860;54;20418;-75
2023/08/21 18:24:14;;;;;;;12.60;11.60;;;;;;;;;;2615390;54;20390;-75
2023/08/21 18:29:44;;;;;;;11.93;11.23;;;;;;;;;;2614761;54;20415;-75
2023/08/21 18:35:13;;;;;;;11.87;11.17;;;;;;;;;;2615256;54;20442;-75
2023/08/21 18:40:43;;;;;;;12.33;11.43;;;;;;;;;;2615401;54;20355;-74
2023/08/21 18:46:13;;;;;;;11.87;10.87;;;;;;;;;;2615304;54;20421;-74
2023/08/21 18:51:43;;;;;;;12.30;11.10;;;;;;;;;;2615001;54;20415;-75
2023/08/21 18:57:12;;;;;;;12.30;11.20;;;;;;;;;;2615110;54;20384;-75
2023/08/21 19:02:42;;;;;;;12.00;10.90;;;;;;;;;;2615485;46;21116;-74
2023/08/21 19:08:13;;;;;;;12.73;11.50;;;;;;;;;;2615413;54;20381;-74
2023/08/21 19:13:42;;;;;;;12.87;11.67;;;;;;;;;;2615563;54;20394;-74
2023/08/21 19:19:12;;;;;;;15.40;10.90;;;;;;;;;;2614809;54;20403;-73
2023/08/21 19:24:42;;;;;;;20.60;11.10;;;;;;;;;;2615133;54;20375;-75
2023/08/21 19:30:12;;;;;;;19.37;11.70;;;;;;;;;;2614876;39;20784;-75
2023/08/21 19:35:42;;;;;;;24.90;11.90;;;;;;;;;;2615099;54;20909;-75
2023/08/21 19:41:12;;;;;;;21.93;11.40;;;;;;;;;;2615132;54;20394;-75
2023/08/21 19:52:50;;;;;;;26.10;12.50;;;;;;;;;;2615751;54;20422;-75
2023/08/21 19:58:19;;;;;;;16.83;10.33;;;;;;;;;;2615349;54;20407;-75
2023/08/21 20:03:49;;;;;;;27.13;11.03;;;;;;;;;;2614223;54;20402;-74
2023/08/21 20:09:18;;;;;;;11.43;10.27;;;;;;;;;;2614405;54;20379;-73
2023/08/21 20:14:48;;;;;;;23.03;10.00;;;;;;;;;;2614703;54;20391;-73
2023/08/21 20:20:18;;;;;;;14.67;10.70;;;;;;;;;;2613973;54;20394;-73
2023/08/21 20:25:49;;;;;;;11.83;9.57;;;;;;;;;;2614432;54;20398;-74
2023/08/21 20:31:19;;;;;;;17.13;11.00;;;;;;;;;;2614038;54;20419;-74
2023/08/21 20:36:48;;;;;;;22.97;11.03;;;;;;;;;;2614132;54;20382;-74
2023/08/21 20:42:19;;;;;;;11.80;10.17;;;;;;;;;;2614688;54;20901;-75
2023/08/21 20:51:30;;;;;;;13.20;10.07;;;;;;;;;;2615211;39;20777;-74
2023/08/21 20:57:00;;;;;;;15.93;10.20;;;;;;;;;;2614920;54;20391;-73
2023/08/21 21:02:29;;;;;;;12.80;10.67;;;;;;;;;;2614933;54;20358;-75
2023/08/21 21:07:59;;;;;;;17.53;9.67;;;;;;;;;;2615370;54;20419;-75
2023/08/21 21:13:29;;;;;;;11.80;10.07;;;;;;;;;;2615773;54;20944;-76
2023/08/21 21:18:59;;;;;;;14.37;9.90;;;;;;;;;;2615612;54;20398;-75
2023/08/21 21:24:28;;;;;;;10.90;10.00;;;;;;;;;;2615733;54;20394;-76
2023/08/21 21:29:58;;;;;;;12.10;10.00;;;;;;;;;;2615431;54;20395;-75
2023/08/21 21:35:28;;;;;;;14.63;10.97;;;;;;;;;;2616093;39;20727;-74
2023/08/21 21:40:58;;;;;;;20.23;11.30;;;;;;;;;;2615808;54;20419;-75
2023/08/21 21:46:27;;;;;;;13.87;11.27;;;;;;;;;;2615524;54;20359;-75
2023/08/21 21:51:57;;;;;;;15.03;13.53;;;;;;;;;;2615759;54;20977;-75
2023/08/21 21:57:26;;;;;;;13.67;11.63;;;;;;;;;;2615648;54;20479;-75
2023/08/21 22:02:56;;;;;;;15.10;11.60;;;;;;;;;;2615501;54;20892;-75
2023/08/21 22:08:25;;;;;;;12.90;10.10;;;;;;;;;;2616342;39;20876;-75
2023/08/21 22:13:55;;;;;;;15.43;11.83;;;;;;;;;;2616042;54;20701;-75
2023/08/21 22:19:25;;;;;;;14.70;13.17;;;;;;;;;;2615531;54;20415;-74
2023/08/21 22:24:54;;;;;;;14.40;12.70;;;;;;;;;;2615249;54;20430;-75
2023/08/21 22:30:24;;;;;;;15.30;13.77;;;;;;;;;;2615303;39;20773;-76
2023/08/21 22:35:53;;;;;;;16.83;14.30;;;;;;;;;;2614625;54;20359;-74
2023/08/21 22:41:23;;;;;;;15.80;14.20;;;;;;;;;;2615208;54;20367;-74
2023/08/21 22:46:53;;;;;;;15.10;13.27;;;;;;;;;;2614714;54;20351;-73
2023/08/21 22:56:06;;;;;;;15.17;12.37;;;;;;;;;;2614856;39;20806;-75
2023/08/21 23:01:36;;;;;;;14.13;12.77;;;;;;;;;;2614549;54;20399;-74
2023/08/21 23:07:05;;;;;;;14.80;12.67;;;;;;;;;;2614782;54;20908;-75
2023/08/21 23:12:35;;;;;;;12.93;11.43;;;;;;;;;;2614547;54;20390;-75
2023/08/21 23:18:04;;;;;;;13.77;12.30;;;;;;;;;;2614330;54;20486;-74
2023/08/21 23:23:34;;;;;;;14.17;12.87;;;;;;;;;;2614849;54;20483;-76
2023/08/21 23:29:06;;;;;;;14.83;13.27;;;;;;;;;;2614629;54;20705;-75
2023/08/21 23:34:36;;;;;;;19.10;12.80;;;;;;;;;;2614471;54;20434;-75
2023/08/21 23:40:06;;;;;;;15.70;13.00;;;;;;;;;;2614846;54;20359;-77
2023/08/21 23:45:36;;;;;;;13.60;12.20;;;;;;;;;;2614442;54;20391;-75
2023/08/21 23:51:07;;;;;;;15.57;13.83;;;;;;;;;;2614513;54;20415;-75
2023/08/21 23:56:36;;;;;;;14.67;13.17;;;;;;;;;;2614703;54;20450;-76
